createdAt,value
2022-12-15T00:02:08.665Z,37.70
2022-12-15T00:04:53.640Z,42.80
2022-12-15T00:07:38.628Z,36.50
2022-12-15T00:10:24.105Z,41.20
2022-12-15T00:13:09.127Z,42.80
2022-12-15T00:15:54.025Z,53.70
2022-12-15T00:18:39.280Z,48.90
2022-12-15T00:21:24.164Z,51.10
2022-12-15T00:24:09.227Z,47.40
2022-12-15T00:26:54.010Z,47.30
2022-12-15T00:29:38.836Z,44.80
2022-12-15T00:32:23.526Z,45.80
2022-12-15T00:35:08.419Z,48.60
2022-12-15T00:37:53.416Z,45.20
2022-12-15T00:40:19.775Z,42.60
2022-12-15T00:42:49.442Z,45.50
2022-12-15T00:45:16.440Z,42.40
2022-12-15T00:47:42.843Z,42.60
2022-12-15T00:50:28.463Z,45.10
2022-12-15T00:53:13.507Z,39.80
2022-12-15T00:55:58.330Z,39.30
2022-12-15T00:58:43.210Z,45.80
2022-12-15T01:01:29.182Z,39.40
2022-12-15T01:04:14.667Z,56.70
2022-12-15T01:06:59.966Z,49.80
2022-12-15T01:09:45.323Z,50.70
2022-12-15T01:12:30.440Z,47.20
2022-12-15T01:15:15.306Z,43.70
2022-12-15T01:18:00.032Z,45.20
2022-12-15T01:20:26.480Z,46.60
2022-12-15T01:22:55.395Z,46.00
2022-12-15T01:25:25.596Z,48.00
2022-12-15T01:27:52.647Z,47.60
2022-12-15T01:30:23.466Z,43.50
2022-12-15T01:32:50.761Z,46.40
2022-12-15T01:35:17.645Z,41.70
2022-12-15T01:37:45.224Z,43.20
2022-12-15T01:40:39.720Z,43.40
2022-12-15T01:43:23.851Z,43.60
2022-12-15T01:45:57.650Z,45.10
2022-12-15T01:48:44.691Z,37.90
2022-12-15T01:51:25.839Z,44.30
2022-12-15T01:54:14.423Z,43.70
2022-12-15T01:56:46.628Z,39.00
2022-12-15T01:59:19.630Z,32.00
2022-12-15T02:01:50.035Z,43.50
2022-12-15T02:04:21.173Z,48.10
2022-12-15T02:06:48.184Z,50.00
2022-12-15T02:09:16.360Z,51.10
2022-12-15T02:12:19.786Z,57.80
2022-12-15T02:15:33.327Z,55.70
2022-12-15T02:18:36.888Z,42.80
2022-12-15T02:21:19.742Z,31.20
2022-12-15T02:24:49.549Z,33.20
2022-12-15T02:28:06.410Z,47.20
2022-12-15T02:30:46.186Z,32.60
2022-12-15T02:33:29.905Z,42.10
2022-12-15T02:36:34.551Z,40.80
2022-12-15T02:39:01.576Z,47.50
2022-12-15T02:41:44.460Z,42.20
2022-12-15T02:44:28.768Z,41.80
2022-12-15T02:47:57.875Z,47.30
2022-12-15T02:51:20.943Z,51.10
2022-12-15T02:54:21.897Z,55.20
2022-12-15T02:57:24.665Z,47.20
2022-12-15T03:00:08.019Z,45.50
2022-12-15T03:02:40.017Z,61.10
2022-12-15T03:05:08.282Z,51.70
2022-12-15T03:07:34.902Z,58.40
2022-12-15T03:10:05.418Z,46.00
2022-12-15T03:12:31.978Z,49.50
2022-12-15T03:14:58.357Z,38.10
2022-12-15T03:17:24.802Z,39.90
2022-12-15T03:19:51.332Z,37.90
2022-12-15T03:22:17.847Z,43.60
2022-12-15T03:24:44.224Z,51.00
2022-12-15T03:27:10.779Z,49.90
2022-12-15T03:29:37.547Z,56.80
2022-12-15T03:32:04.408Z,44.80
2022-12-15T03:34:30.876Z,50.00
2022-12-15T03:36:57.908Z,48.10
2022-12-15T03:39:24.326Z,55.00
2022-12-15T03:41:50.750Z,60.60
2022-12-15T03:44:17.252Z,50.70
2022-12-15T03:46:43.673Z,48.70
2022-12-15T03:49:10.059Z,56.00
2022-12-15T03:51:36.481Z,50.00
2022-12-15T03:54:02.823Z,56.10
2022-12-15T03:56:29.547Z,57.60
2022-12-15T03:58:56.016Z,58.30
2022-12-15T04:01:25.648Z,54.20
2022-12-15T04:03:55.570Z,62.70
2022-12-15T04:06:27.171Z,73.80
2022-12-15T04:08:53.575Z,66.50
2022-12-15T04:11:20.354Z,51.40
2022-12-15T04:13:46.868Z,54.80
2022-12-15T04:16:19.325Z,67.00
2022-12-15T04:18:46.462Z,90.50
2022-12-15T04:21:12.854Z,71.10
2022-12-15T04:23:39.380Z,58.60
2022-12-15T04:26:24.292Z,69.20
2022-12-15T04:29:09.220Z,65.10
2022-12-15T04:31:54.452Z,72.20
2022-12-15T04:34:42.746Z,84.90
2022-12-15T04:37:32.799Z,75.40
2022-12-15T04:40:18.105Z,51.00
2022-12-15T04:43:05.895Z,78.20
2022-12-15T04:45:51.731Z,74.40
2022-12-15T04:48:36.785Z,81.70
2022-12-15T04:51:23.831Z,58.20
2022-12-15T04:54:08.905Z,82.50
2022-12-15T04:56:53.643Z,99.30
2022-12-15T04:59:38.427Z,90.80
2022-12-15T05:02:23.337Z,82.50
2022-12-15T05:05:08.668Z,70.60
2022-12-15T05:07:53.484Z,65.20
2022-12-15T05:10:38.308Z,63.10
2022-12-15T05:13:25.713Z,113.20
2022-12-15T05:16:11.151Z,112.50
2022-12-15T05:18:56.361Z,116.00
2022-12-15T05:21:41.123Z,117.40
2022-12-15T05:24:26.312Z,85.50
2022-12-15T05:27:11.068Z,70.50
2022-12-15T05:29:55.906Z,71.20
2022-12-15T05:32:22.400Z,72.30
2022-12-15T05:34:48.822Z,74.80
2022-12-15T05:37:15.204Z,73.90
2022-12-15T05:39:42.296Z,85.60
2022-12-15T05:42:08.751Z,88.70
2022-12-15T05:44:35.625Z,82.60
2022-12-15T05:47:02.147Z,95.90
2022-12-15T05:49:28.668Z,66.70
2022-12-15T05:51:55.131Z,76.40
2022-12-15T05:54:21.519Z,103.10
2022-12-15T05:56:50.234Z,103.10
2022-12-15T05:59:19.028Z,85.70
2022-12-15T06:01:45.914Z,83.00
2022-12-15T06:04:13.107Z,73.60
2022-12-15T06:06:40.534Z,83.20
2022-12-15T06:09:07.429Z,84.70
2022-12-15T06:11:34.037Z,85.50
2022-12-15T06:14:00.502Z,72.00
2022-12-15T06:16:28.191Z,81.50
2022-12-15T06:19:00.529Z,87.30
2022-12-15T06:21:35.239Z,77.50
2022-12-15T06:24:03.478Z,76.00
2022-12-15T06:26:36.971Z,69.40
2022-12-15T06:29:07.748Z,71.50
2022-12-15T06:31:34.932Z,91.10
2022-12-15T06:34:06.427Z,104.30
2022-12-15T06:36:33.495Z,80.00
2022-12-15T06:39:05.160Z,105.40
2022-12-15T06:41:32.458Z,88.40
2022-12-15T06:44:00.130Z,72.20
2022-12-15T06:46:29.652Z,74.40
2022-12-15T06:48:57.265Z,89.80
2022-12-15T06:51:24.169Z,94.50
2022-12-15T06:53:54.147Z,112.00
2022-12-15T06:56:33.112Z,90.40
2022-12-15T06:59:02.234Z,79.60
2022-12-15T07:01:29.574Z,78.30
2022-12-15T07:03:57.013Z,97.20
2022-12-15T07:06:23.852Z,177.10
2022-12-15T07:08:53.742Z,118.30
2022-12-15T07:11:22.364Z,120.80
2022-12-15T07:13:53.548Z,99.10
2022-12-15T07:16:22.272Z,101.10
2022-12-15T07:18:49.117Z,151.00
2022-12-15T07:21:16.525Z,128.70
2022-12-15T07:23:59.241Z,119.80
2022-12-15T07:26:26.630Z,135.60
2022-12-15T07:28:54.395Z,105.80
2022-12-15T07:31:23.194Z,105.70
2022-12-15T07:33:52.045Z,115.50
2022-12-15T07:36:18.599Z,88.90
2022-12-15T07:38:45.636Z,102.00
2022-12-15T07:41:18.523Z,104.10
2022-12-15T07:43:45.865Z,92.10
2022-12-15T07:46:12.387Z,101.70
2022-12-15T07:48:38.852Z,95.00
2022-12-15T07:51:12.316Z,109.80
2022-12-15T07:53:42.031Z,114.10
2022-12-15T07:56:09.858Z,128.80
2022-12-15T07:58:37.850Z,142.50
2022-12-15T08:01:12.329Z,126.80
2022-12-15T08:03:40.008Z,126.90
2022-12-15T08:06:12.475Z,148.80
2022-12-15T08:08:40.247Z,110.80
2022-12-15T08:11:12.325Z,136.00
2022-12-15T08:16:27.569Z,100.90
2022-12-15T08:18:54.069Z,95.70
2022-12-15T08:21:20.529Z,110.50
2022-12-15T08:23:47.255Z,109.50
2022-12-15T08:26:17.680Z,127.70
2022-12-15T08:28:44.890Z,106.60
2022-12-15T08:31:17.820Z,129.30
2022-12-15T08:33:45.717Z,143.10
2022-12-15T08:36:14.890Z,127.10
2022-12-15T08:38:43.906Z,111.80
2022-12-15T08:41:14.900Z,107.60
2022-12-15T08:43:48.157Z,101.10
2022-12-15T08:46:35.848Z,111.60
2022-12-15T08:49:03.695Z,102.80
2022-12-15T08:51:32.459Z,90.80
2022-12-15T08:54:00.608Z,94.50
2022-12-15T08:56:28.976Z,83.60
2022-12-15T08:58:59.812Z,92.10
2022-12-15T09:01:29.052Z,74.30
2022-12-15T09:03:57.050Z,67.70
2022-12-15T09:06:28.490Z,74.30
2022-12-15T09:09:01.616Z,70.40
2022-12-15T09:11:30.517Z,111.60
2022-12-15T09:13:57.943Z,100.70
2022-12-15T09:16:25.125Z,89.60
2022-12-15T09:18:55.013Z,89.40
2022-12-15T09:21:26.041Z,98.30
2022-12-15T09:23:57.684Z,142.20
2022-12-15T09:26:24.410Z,85.20
2022-12-15T09:28:51.206Z,80.40
2022-12-15T09:31:22.126Z,80.30
2022-12-15T09:33:51.869Z,77.10
2022-12-15T09:36:20.419Z,84.40
2022-12-15T09:38:47.082Z,89.80
2022-12-15T09:41:13.557Z,81.70
2022-12-15T09:44:14.306Z,81.40
2022-12-15T09:47:16.519Z,79.10
2022-12-15T09:50:05.046Z,80.00
2022-12-15T09:52:52.631Z,81.20
2022-12-15T09:55:32.726Z,101.70
2022-12-15T09:58:40.711Z,64.60
2022-12-15T10:01:33.602Z,69.20
2022-12-15T10:04:15.380Z,93.10
2022-12-15T10:06:59.531Z,68.00
2022-12-15T10:09:28.886Z,78.90
2022-12-15T10:12:15.403Z,83.70
2022-12-15T10:14:55.333Z,77.80
2022-12-15T10:17:52.587Z,75.20
2022-12-15T10:20:26.354Z,113.40
2022-12-15T10:22:55.417Z,128.60
2022-12-15T10:25:30.882Z,94.50
2022-12-15T10:28:15.659Z,97.30
2022-12-15T10:31:16.201Z,83.80
2022-12-15T10:33:48.670Z,74.00
2022-12-15T10:36:17.006Z,74.00
2022-12-15T10:38:50.481Z,69.50
2022-12-15T10:41:25.800Z,79.50
2022-12-15T10:43:54.254Z,80.50
2022-12-15T10:46:28.079Z,76.10
2022-12-15T10:49:21.247Z,72.20
2022-12-15T10:52:01.952Z,87.40
2022-12-15T10:54:43.548Z,86.80
2022-12-15T10:57:31.752Z,74.50
2022-12-15T11:00:30.168Z,84.80
2022-12-15T11:02:58.159Z,76.70
2022-12-15T11:05:26.643Z,115.70
2022-12-15T11:08:16.179Z,84.50
2022-12-15T11:11:14.568Z,112.10
2022-12-15T11:13:43.078Z,92.90
2022-12-15T11:16:16.209Z,104.20
2022-12-15T11:18:53.883Z,73.50
2022-12-15T11:21:32.835Z,71.50
2022-12-15T11:24:21.760Z,79.00
2022-12-15T11:26:56.683Z,75.70
2022-12-15T11:29:23.364Z,61.90
2022-12-15T11:31:54.377Z,75.40
2022-12-15T11:34:35.347Z,73.60
2022-12-15T11:37:36.408Z,74.50
2022-12-15T11:40:15.523Z,85.00
2022-12-15T11:43:26.854Z,129.30
2022-12-15T11:46:19.542Z,99.70
2022-12-15T11:49:23.067Z,80.80
2022-12-15T11:52:06.285Z,87.00
2022-12-15T11:54:54.888Z,74.70
2022-12-15T11:57:58.942Z,69.40
2022-12-15T12:00:25.469Z,59.30
2022-12-15T12:03:09.580Z,93.80
2022-12-15T12:06:03.000Z,77.10
2022-12-15T12:09:01.521Z,81.50
2022-12-15T12:11:42.869Z,68.60
2022-12-15T12:14:39.841Z,73.30
2022-12-15T12:17:37.724Z,74.20
2022-12-15T12:20:19.148Z,72.20
2022-12-15T12:23:16.470Z,66.90
2022-12-15T12:26:32.225Z,78.10
2022-12-15T12:29:24.231Z,94.70
2022-12-15T12:32:15.873Z,115.90
2022-12-15T12:38:09.594Z,91.10
2022-12-15T12:41:07.137Z,98.40
2022-12-15T12:43:41.328Z,109.20
2022-12-15T12:46:39.127Z,98.60
2022-12-15T12:49:26.641Z,106.80
2022-12-15T12:51:58.520Z,107.60
2022-12-15T12:54:33.918Z,111.60
2022-12-15T12:57:01.611Z,134.40
2022-12-15T12:59:30.951Z,121.60
2022-12-15T13:02:24.638Z,135.30
2022-12-15T13:05:28.683Z,140.90
2022-12-15T13:08:07.709Z,127.90
2022-12-15T13:10:37.185Z,139.70
2022-12-15T13:13:18.723Z,160.20
2022-12-15T13:18:55.538Z,156.10
2022-12-15T13:21:44.979Z,114.30
2022-12-15T13:24:35.541Z,120.90
2022-12-15T13:27:13.817Z,127.60
2022-12-15T13:29:56.677Z,145.30
2022-12-15T13:32:42.372Z,171.40
2022-12-15T13:35:14.641Z,321.20
2022-12-15T13:38:03.839Z,342.60
2022-12-15T13:40:36.361Z,228.80
2022-12-15T13:43:05.590Z,235.30
2022-12-15T13:45:38.068Z,209.40
2022-12-15T13:48:18.148Z,140.00
2022-12-15T13:50:55.392Z,159.80
2022-12-15T13:53:25.870Z,222.10
2022-12-15T13:56:06.202Z,176.50
2022-12-15T13:58:49.041Z,174.70
2022-12-15T14:01:33.138Z,175.60
2022-12-15T14:04:21.739Z,213.10
2022-12-15T14:07:05.708Z,202.60
2022-12-15T14:09:41.379Z,142.00
2022-12-15T14:12:13.663Z,119.70
2022-12-15T14:14:49.512Z,105.10
2022-12-15T14:17:20.083Z,96.40
2022-12-15T14:19:50.909Z,100.00
2022-12-15T14:25:26.145Z,98.90
2022-12-15T14:27:52.587Z,110.00
2022-12-15T14:30:32.752Z,92.90
2022-12-15T14:33:04.262Z,95.50
2022-12-15T14:35:49.411Z,92.40
2022-12-15T14:38:26.478Z,104.10
2022-12-15T14:40:57.681Z,119.40
2022-12-15T14:43:35.220Z,131.90
2022-12-15T14:46:17.963Z,137.20
2022-12-15T14:48:56.583Z,140.20
2022-12-15T14:51:26.531Z,142.30
2022-12-15T14:53:54.654Z,138.10
2022-12-15T14:56:30.426Z,142.60
2022-12-15T14:59:04.358Z,139.30
2022-12-15T15:01:40.688Z,131.00
2022-12-15T15:03:05.231Z,175.50
2022-12-15T15:03:11.248Z,107.60
2022-12-15T15:04:32.581Z,123.90
2022-12-15T15:07:07.796Z,126.00
2022-12-15T15:09:42.753Z,134.50
2022-12-15T15:12:19.748Z,137.80
2022-12-15T15:14:52.427Z,138.20
2022-12-15T15:17:35.720Z,140.80
2022-12-15T15:20:17.642Z,149.20
2022-12-15T15:23:10.910Z,124.40
2022-12-15T15:25:40.759Z,134.00
2022-12-15T15:28:19.605Z,126.10
2022-12-15T15:31:05.510Z,130.00
2022-12-15T15:33:32.841Z,119.50
2022-12-15T15:36:02.949Z,127.20
2022-12-15T15:38:38.659Z,163.60
2022-12-15T15:41:13.927Z,181.90
2022-12-15T15:43:41.423Z,143.80
2022-12-15T15:46:20.265Z,163.30
2022-12-15T15:48:51.344Z,160.50
2022-12-15T15:51:19.032Z,143.60
2022-12-15T15:53:46.691Z,82.00
2022-12-15T15:56:16.399Z,121.30
2022-12-15T15:58:43.901Z,151.50
2022-12-15T16:01:13.291Z,134.60
2022-12-15T16:03:41.137Z,126.70
2022-12-15T16:06:18.176Z,110.10
2022-12-15T16:08:48.850Z,92.50
2022-12-15T16:11:15.464Z,90.90
2022-12-15T16:13:42.160Z,109.80
2022-12-15T16:16:24.650Z,117.60
2022-12-15T16:18:51.147Z,123.70
2022-12-15T16:21:27.244Z,134.40
2022-12-15T16:23:56.077Z,121.10
2022-12-15T16:26:32.564Z,94.90
2022-12-15T16:29:00.022Z,70.90
2022-12-15T16:31:41.420Z,71.60
2022-12-15T16:34:09.083Z,54.90
2022-12-15T16:36:35.644Z,52.00
2022-12-15T16:39:02.720Z,43.10
2022-12-15T16:41:29.147Z,47.00
2022-12-15T16:43:55.526Z,65.20
2022-12-15T16:46:22.021Z,64.30
2022-12-15T16:48:48.773Z,86.00
2022-12-15T16:51:32.417Z,104.90
2022-12-15T16:53:58.800Z,108.20
2022-12-15T16:56:25.359Z,73.20
2022-12-15T16:58:57.516Z,63.50
2022-12-15T17:01:29.531Z,60.30
2022-12-15T17:03:56.198Z,57.60
2022-12-15T17:06:22.692Z,55.60
2022-12-15T17:08:56.555Z,59.50
2022-12-15T17:11:25.634Z,65.60
2022-12-15T17:13:55.700Z,49.90
2022-12-15T17:16:25.885Z,35.20
2022-12-15T17:18:52.909Z,41.10
2022-12-15T17:21:26.425Z,32.40
2022-12-15T17:23:58.796Z,39.30
2022-12-15T17:26:32.532Z,39.20
2022-12-15T17:29:06.084Z,35.70
2022-12-15T17:31:35.658Z,45.90
2022-12-15T17:34:30.132Z,53.10
2022-12-15T17:37:00.417Z,57.60
2022-12-15T17:39:28.140Z,97.70
2022-12-15T17:42:00.551Z,112.40
2022-12-15T17:44:34.755Z,100.10
2022-12-15T17:47:02.983Z,294.30
2022-12-15T17:49:35.121Z,99.00
2022-12-15T17:52:06.792Z,76.30
2022-12-15T17:54:33.748Z,74.50
2022-12-15T17:57:00.292Z,41.50
2022-12-15T17:59:26.770Z,39.20
2022-12-15T18:01:56.878Z,38.50
2022-12-15T18:04:23.575Z,27.30
2022-12-15T18:06:50.037Z,42.80
2022-12-15T18:09:19.618Z,34.20
2022-12-15T18:11:46.873Z,32.20
2022-12-15T18:14:17.477Z,34.00
2022-12-15T18:16:44.740Z,29.70
2022-12-15T18:19:12.003Z,35.80
2022-12-15T18:21:39.162Z,42.90
2022-12-15T18:24:21.396Z,28.30
2022-12-15T18:26:47.788Z,28.60
2022-12-15T18:29:18.112Z,29.40
2022-12-15T18:31:48.345Z,41.20
2022-12-15T18:34:18.632Z,41.60
2022-12-15T18:36:45.086Z,30.40
2022-12-15T18:39:23.971Z,46.50
2022-12-15T18:41:52.079Z,53.30
2022-12-15T18:44:26.703Z,58.90
2022-12-15T18:46:55.143Z,45.70
2022-12-15T18:49:22.771Z,39.10
2022-12-15T18:51:49.779Z,39.00
2022-12-15T18:54:23.923Z,38.10
2022-12-15T18:56:51.646Z,46.00
2022-12-15T18:59:19.502Z,47.10
2022-12-15T19:01:48.375Z,47.10
2022-12-15T19:04:16.017Z,43.40
2022-12-15T19:06:44.513Z,49.10
2022-12-15T19:09:18.675Z,58.20
2022-12-15T19:12:06.975Z,61.80
2022-12-15T19:14:43.096Z,62.30
2022-12-15T19:17:42.300Z,58.90
2022-12-15T19:20:35.869Z,73.70
2022-12-15T19:23:03.419Z,76.90
2022-12-15T19:25:31.005Z,68.10
2022-12-15T19:27:59.924Z,66.30
2022-12-15T19:30:38.574Z,70.80
2022-12-15T19:33:08.289Z,57.30
2022-12-15T19:35:36.325Z,61.00
2022-12-15T19:38:04.199Z,71.70
2022-12-15T19:40:33.396Z,69.30
2022-12-15T19:43:00.871Z,66.90
2022-12-15T19:45:30.963Z,67.70
2022-12-15T19:47:58.755Z,60.90
2022-12-15T19:50:36.582Z,68.80
2022-12-15T19:53:13.368Z,76.20
2022-12-15T19:55:40.488Z,68.20
2022-12-15T19:58:30.881Z,67.40
2022-12-15T20:01:05.071Z,66.00
2022-12-15T20:03:33.724Z,69.70
2022-12-15T20:06:02.726Z,72.30
2022-12-15T20:08:37.336Z,87.10
2022-12-15T20:11:04.446Z,81.90
2022-12-15T20:13:31.437Z,80.60
2022-12-15T20:15:58.172Z,78.00
2022-12-15T20:18:24.531Z,93.50
2022-12-15T20:20:51.172Z,118.90
2022-12-15T20:23:25.941Z,125.80
2022-12-15T20:25:54.249Z,143.60
2022-12-15T20:28:28.961Z,114.70
2022-12-15T20:30:57.317Z,101.30
2022-12-15T20:33:24.133Z,100.60
2022-12-15T20:35:50.949Z,101.60
2022-12-15T20:38:32.568Z,86.60
2022-12-15T20:41:01.898Z,99.10
2022-12-15T20:43:31.630Z,93.70
2022-12-15T20:46:12.455Z,89.30
2022-12-15T20:48:39.251Z,104.70
2022-12-15T20:51:09.740Z,135.40
2022-12-15T20:53:38.803Z,107.70
2022-12-15T20:56:06.148Z,99.10
2022-12-15T20:58:33.247Z,108.00
2022-12-15T21:01:00.754Z,95.80
2022-12-15T21:03:32.955Z,86.70
2022-12-15T21:06:00.424Z,75.50
2022-12-15T21:08:30.769Z,65.00
2022-12-15T21:11:27.403Z,67.20
2022-12-15T21:13:56.803Z,59.90
2022-12-15T21:16:28.932Z,75.30
2022-12-15T21:19:20.400Z,63.60
2022-12-15T21:21:49.363Z,81.00
2022-12-15T21:24:22.923Z,82.50
2022-12-15T21:26:50.101Z,97.20
2022-12-15T21:29:21.391Z,90.10
2022-12-15T21:31:48.413Z,93.10
2022-12-15T21:34:15.494Z,95.40
2022-12-15T21:36:46.488Z,97.10
2022-12-15T21:39:23.407Z,112.40
2022-12-15T21:41:50.174Z,114.80
2022-12-15T21:44:18.240Z,107.90
2022-12-15T21:46:44.728Z,125.90
2022-12-15T21:49:19.677Z,147.70
2022-12-15T21:51:53.784Z,149.60
2022-12-15T21:54:31.552Z,119.60
2022-12-15T21:57:00.271Z,100.30
2022-12-15T21:59:31.348Z,108.00
2022-12-15T22:02:00.795Z,104.60
2022-12-15T22:04:34.507Z,100.30
2022-12-15T22:07:01.585Z,95.10
2022-12-15T22:09:28.270Z,86.00
2022-12-15T22:11:56.573Z,90.30
2022-12-15T22:14:29.509Z,74.80
2022-12-15T22:16:58.187Z,79.90
2022-12-15T22:19:24.936Z,99.10
2022-12-15T22:21:52.007Z,123.60
2022-12-15T22:24:19.092Z,123.90
2022-12-15T22:26:47.104Z,121.10
2022-12-15T22:29:19.218Z,123.70
2022-12-15T22:31:46.885Z,133.10
2022-12-15T22:34:23.047Z,127.90
2022-12-15T22:36:50.728Z,156.40
2022-12-15T22:39:18.777Z,160.60
2022-12-15T22:41:49.969Z,157.80
2022-12-15T22:44:21.387Z,142.00
2022-12-15T22:46:50.067Z,165.90
2022-12-15T22:49:24.735Z,161.40
2022-12-15T22:51:51.354Z,169.30
2022-12-15T22:54:28.842Z,158.80
2022-12-15T22:57:16.628Z,196.60
2022-12-15T22:59:53.068Z,196.70
2022-12-15T23:02:21.231Z,186.10
2022-12-15T23:04:47.655Z,173.30
2022-12-15T23:07:14.431Z,154.80
2022-12-15T23:09:40.781Z,156.20
2022-12-15T23:12:07.582Z,110.30
2022-12-15T23:14:52.596Z,76.40
2022-12-15T23:17:19.987Z,65.60
2022-12-15T23:19:47.066Z,75.80
2022-12-15T23:22:14.384Z,75.60
2022-12-15T23:24:40.980Z,72.80
2022-12-15T23:27:11.702Z,72.50
2022-12-15T23:29:38.337Z,61.60
2022-12-15T23:32:05.045Z,75.30
2022-12-15T23:34:31.500Z,104.10
2022-12-15T23:36:57.884Z,101.10
2022-12-15T23:39:24.313Z,104.60
2022-12-15T23:41:50.674Z,90.00
2022-12-15T23:44:17.091Z,89.70
2022-12-15T23:46:43.596Z,82.70
2022-12-15T23:49:10.083Z,90.50
2022-12-15T23:51:36.507Z,78.50
2022-12-15T23:54:02.938Z,78.30
2022-12-15T23:56:29.344Z,84.50
2022-12-15T23:58:58.985Z,81.50
